Airfield :
LOGIN :

Register | Disclaimer

   EN    FR    IT 

 










Legend :    VFR   Marginal VFR   IFR   Intensive IFR   Very Intensive IFR
Visi :
Ceiling :
>= 8 km
>= 3000ft
5 to 8 km
1000 to 3000 ft
1500m to 5 km
500 to 1000 ft
800 to 1500m
200 to 500 ft
< 800m
< 200 ft
Symbols :   Thunderstorms  Fog  Heavy snow  Heavy precipitations  Wind > 20 kt
SIGMETs :     Misc.  Thunderstorms  Icing  Turbulence  Mountain Waves  Volcanic Ashes






- Airport Elevation : 464 ft
- IATA code : EVX


LFOE - Evreux

CURRENT METAR :
  • 060500Z AUTO /////KT 6000 -RA FEW007/// BKN076/// OVC090/// ///TCU 02/02 Q1017

EXPIRED METARs :
  • 060430Z AUTO /////KT 6000 ///TCU 02/02 Q1017
  • 060400Z AUTO 20010KT 6000 ///TCU 02/02 Q1018 TEMPO 4000 RA SCT007 BKN015
  • 060330Z AUTO 21009KT 6000 NSC 02/02 Q1018
  • 060300Z AUTO 20010KT 6000 NSC 01/01 Q1018
  • 060230Z AUTO 20010KT 6000 NSC 01/01 Q1018

TAF TAF LFOE
Valid from the 06 at 03:00 until the 07 at 03:00 UTC


060200Z 0603/0703 21012KT 6000 -RA BKN055
PROB40
TEMPO 0603/0610 21010G20KT 4000 RA SCT007 BKN015
BECMG 0608/0610 21020G30KT
BECMG 0610/0613 9999 NSW BKN020
TEMPO 0616/0621 4000 -RA BKN010 OVC020
BECMG 0621/0623 23012KT



MET'MAP, your aeronautical weather chart ! - Copyright ORBIFLY December 2007 - Disclaimer

ORBIFLY MET'MAP TEAM :

Programming & Development : Alexandra Zaïnal
Concept & original design : Baudouin d'Aumeries
Assistance for programming : Marc-Olivier Méhu
Technical & hardware support : Manuel Goepfert

Contact : metmap@orbifly.com




SOURCES & CREDITS :

   NOAA